sensor_id;sensor_type;location;lat;lon;timestamp;temperature;humidity
22738;DHT22;11536;50.860;4.286;2023-06-05T00:00:42;17.70;94.50
22738;DHT22;11536;50.860;4.286;2023-06-05T00:03:08;17.70;94.30
22738;DHT22;11536;50.860;4.286;2023-06-05T00:05:33;17.60;94.00
22738;DHT22;11536;50.860;4.286;2023-06-05T00:07:59;17.50;94.40
22738;DHT22;11536;50.860;4.286;2023-06-05T00:10:24;17.60;93.90
22738;DHT22;11536;50.860;4.286;2023-06-05T00:12:50;17.60;94.10
22738;DHT22;11536;50.860;4.286;2023-06-05T00:15:16;17.60;94.00
22738;DHT22;11536;50.860;4.286;2023-06-05T00:17:42;17.60;94.00
22738;DHT22;11536;50.860;4.286;2023-06-05T00:20:07;17.60;94.30
22738;DHT22;11536;50.860;4.286;2023-06-05T00:22:35;17.50;94.20
22738;DHT22;11536;50.860;4.286;2023-06-05T00:25:00;17.50;94.20
22738;DHT22;11536;50.860;4.286;2023-06-05T00:27:27;17.50;94.20
22738;DHT22;11536;50.860;4.286;2023-06-05T00:29:52;17.40;94.30
22738;DHT22;11536;50.860;4.286;2023-06-05T00:32:18;17.40;94.40
22738;DHT22;11536;50.860;4.286;2023-06-05T00:34:44;17.30;94.20
22738;DHT22;11536;50.860;4.286;2023-06-05T00:37:10;17.40;94.30
22738;DHT22;11536;50.860;4.286;2023-06-05T00:39:36;17.40;94.20
22738;DHT22;11536;50.860;4.286;2023-06-05T00:42:02;17.40;94.70
22738;DHT22;11536;50.860;4.286;2023-06-05T00:44:27;17.30;94.40
22738;DHT22;11536;50.860;4.286;2023-06-05T00:46:53;17.30;94.50
22738;DHT22;11536;50.860;4.286;2023-06-05T00:49:19;17.30;94.10
22738;DHT22;11536;50.860;4.286;2023-06-05T00:51:46;17.20;94.20
22738;DHT22;11536;50.860;4.286;2023-06-05T00:54:12;17.20;94.10
22738;DHT22;11536;50.860;4.286;2023-06-05T00:56:40;17.20;94.10
22738;DHT22;11536;50.860;4.286;2023-06-05T00:59:07;17.20;94.50
22738;DHT22;11536;50.860;4.286;2023-06-05T01:01:33;17.10;94.40
22738;DHT22;11536;50.860;4.286;2023-06-05T01:04:00;17.10;94.40
22738;DHT22;11536;50.860;4.286;2023-06-05T01:06:27;17.10;94.60
22738;DHT22;11536;50.860;4.286;2023-06-05T01:08:53;17.00;94.50
22738;DHT22;11536;50.860;4.286;2023-06-05T01:11:37;17.00;94.50
22738;DHT22;11536;50.860;4.286;2023-06-05T01:14:22;16.90;95.00
22738;DHT22;11536;50.860;4.286;2023-06-05T01:16:49;16.80;94.80
22738;DHT22;11536;50.860;4.286;2023-06-05T01:19:19;16.80;94.80
22738;DHT22;11536;50.860;4.286;2023-06-05T01:21:46;16.80;95.20
22738;DHT22;11536;50.860;4.286;2023-06-05T01:24:11;16.70;95.00
22738;DHT22;11536;50.860;4.286;2023-06-05T01:29:10;16.60;95.30
22738;DHT22;11536;50.860;4.286;2023-06-05T01:31:38;16.50;95.50
22738;DHT22;11536;50.860;4.286;2023-06-05T01:34:08;16.60;95.10
22738;DHT22;11536;50.860;4.286;2023-06-05T01:36:39;16.60;95.50
22738;DHT22;11536;50.860;4.286;2023-06-05T01:39:06;16.50;95.20
22738;DHT22;11536;50.860;4.286;2023-06-05T01:41:32;16.50;95.30
22738;DHT22;11536;50.860;4.286;2023-06-05T01:43:59;16.50;95.20
22738;DHT22;11536;50.860;4.286;2023-06-05T01:46:26;16.50;95.10
22738;DHT22;11536;50.860;4.286;2023-06-05T01:48:52;16.50;95.50
22738;DHT22;11536;50.860;4.286;2023-06-05T01:51:19;16.50;95.30
22738;DHT22;11536;50.860;4.286;2023-06-05T01:53:45;16.40;95.60
22738;DHT22;11536;50.860;4.286;2023-06-05T01:56:15;16.30;95.40
22738;DHT22;11536;50.860;4.286;2023-06-05T01:58:45;16.30;95.70
22738;DHT22;11536;50.860;4.286;2023-06-05T02:01:11;16.20;95.60
22738;DHT22;11536;50.860;4.286;2023-06-05T02:03:37;16.20;95.50
22738;DHT22;11536;50.860;4.286;2023-06-05T02:06:03;16.20;95.50
22738;DHT22;11536;50.860;4.286;2023-06-05T02:08:29;16.10;95.70
22738;DHT22;11536;50.860;4.286;2023-06-05T02:10:54;16.10;95.60
22738;DHT22;11536;50.860;4.286;2023-06-05T02:13:20;16.10;96.10
22738;DHT22;11536;50.860;4.286;2023-06-05T02:15:47;16.10;95.90
22738;DHT22;11536;50.860;4.286;2023-06-05T02:18:15;16.00;96.10
22738;DHT22;11536;50.860;4.286;2023-06-05T02:20:42;15.90;96.70
22738;DHT22;11536;50.860;4.286;2023-06-05T02:23:08;15.80;97.00
22738;DHT22;11536;50.860;4.286;2023-06-05T02:25:33;15.70;96.50
22738;DHT22;11536;50.860;4.286;2023-06-05T02:27:59;15.70;96.40
22738;DHT22;11536;50.860;4.286;2023-06-05T02:30:25;15.70;96.10
22738;DHT22;11536;50.860;4.286;2023-06-05T02:32:51;15.70;96.30
22738;DHT22;11536;50.860;4.286;2023-06-05T02:35:22;15.70;96.40
22738;DHT22;11536;50.860;4.286;2023-06-05T02:37:48;15.70;96.80
22738;DHT22;11536;50.860;4.286;2023-06-05T02:40:14;15.70;96.60
22738;DHT22;11536;50.860;4.286;2023-06-05T02:42:40;15.70;96.60
22738;DHT22;11536;50.860;4.286;2023-06-05T02:45:07;15.70;96.80
22738;DHT22;11536;50.860;4.286;2023-06-05T02:47:33;15.60;96.60
22738;DHT22;11536;50.860;4.286;2023-06-05T02:50:00;15.60;96.70
22738;DHT22;11536;50.860;4.286;2023-06-05T02:52:26;15.60;96.80
22738;DHT22;11536;50.860;4.286;2023-06-05T02:54:53;15.60;96.30
22738;DHT22;11536;50.860;4.286;2023-06-05T02:57:19;15.60;96.40
22738;DHT22;11536;50.860;4.286;2023-06-05T02:59:44;15.60;96.40
22738;DHT22;11536;50.860;4.286;2023-06-05T03:02:10;15.60;96.70
22738;DHT22;11536;50.860;4.286;2023-06-05T03:04:37;15.50;96.90
22738;DHT22;11536;50.860;4.286;2023-06-05T03:07:05;15.50;96.70
22738;DHT22;11536;50.860;4.286;2023-06-05T03:09:31;15.40;97.00
22738;DHT22;11536;50.860;4.286;2023-06-05T03:11:57;15.40;96.60
22738;DHT22;11536;50.860;4.286;2023-06-05T03:14:23;15.40;96.70
22738;DHT22;11536;50.860;4.286;2023-06-05T03:16:49;15.40;96.50
22738;DHT22;11536;50.860;4.286;2023-06-05T03:19:15;15.50;96.60
22738;DHT22;11536;50.860;4.286;2023-06-05T03:21:41;15.40;96.60
22738;DHT22;11536;50.860;4.286;2023-06-05T03:24:10;15.40;96.90
22738;DHT22;11536;50.860;4.286;2023-06-05T03:26:43;15.40;96.50
22738;DHT22;11536;50.860;4.286;2023-06-05T03:29:12;15.40;97.00
22738;DHT22;11536;50.860;4.286;2023-06-05T03:31:38;15.40;96.60
22738;DHT22;11536;50.860;4.286;2023-06-05T03:34:04;15.30;97.10
22738;DHT22;11536;50.860;4.286;2023-06-05T03:36:30;15.20;97.10
22738;DHT22;11536;50.860;4.286;2023-06-05T03:38:58;15.20;96.80
22738;DHT22;11536;50.860;4.286;2023-06-05T03:41:24;15.20;96.70
22738;DHT22;11536;50.860;4.286;2023-06-05T03:43:51;15.20;96.80
22738;DHT22;11536;50.860;4.286;2023-06-05T03:46:16;15.20;96.70
22738;DHT22;11536;50.860;4.286;2023-06-05T03:48:45;15.30;97.10
22738;DHT22;11536;50.860;4.286;2023-06-05T03:51:11;15.20;97.00
22738;DHT22;11536;50.860;4.286;2023-06-05T03:53:37;15.10;97.00
22738;DHT22;11536;50.860;4.286;2023-06-05T03:56:05;15.10;96.80
22738;DHT22;11536;50.860;4.286;2023-06-05T03:58:32;15.10;96.80
22738;DHT22;11536;50.860;4.286;2023-06-05T04:00:57;15.10;96.80
22738;DHT22;11536;50.860;4.286;2023-06-05T04:03:23;15.10;96.90
22738;DHT22;11536;50.860;4.286;2023-06-05T04:05:50;15.10;96.90
22738;DHT22;11536;50.860;4.286;2023-06-05T04:08:16;15.10;97.10
22738;DHT22;11536;50.860;4.286;2023-06-05T04:10:42;15.10;96.90
22738;DHT22;11536;50.860;4.286;2023-06-05T04:13:07;15.10;97.00
22738;DHT22;11536;50.860;4.286;2023-06-05T04:15:33;15.10;97.20
22738;DHT22;11536;50.860;4.286;2023-06-05T04:17:59;15.00;96.80
22738;DHT22;11536;50.860;4.286;2023-06-05T04:20:24;15.00;97.30
22738;DHT22;11536;50.860;4.286;2023-06-05T04:22:50;15.00;97.10
22738;DHT22;11536;50.860;4.286;2023-06-05T04:25:16;15.00;97.60
22738;DHT22;11536;50.860;4.286;2023-06-05T04:27:43;14.90;97.20
22738;DHT22;11536;50.860;4.286;2023-06-05T04:30:11;14.80;97.60
22738;DHT22;11536;50.860;4.286;2023-06-05T04:32:38;14.80;97.70
22738;DHT22;11536;50.860;4.286;2023-06-05T04:35:13;14.70;98.10
22738;DHT22;11536;50.860;4.286;2023-06-05T04:37:39;14.70;98.20
22738;DHT22;11536;50.860;4.286;2023-06-05T04:40:05;14.60;98.30
22738;DHT22;11536;50.860;4.286;2023-06-05T04:42:34;14.60;98.70
22738;DHT22;11536;50.860;4.286;2023-06-05T04:45:03;14.50;99.00
22738;DHT22;11536;50.860;4.286;2023-06-05T04:47:30;14.50;98.90
22738;DHT22;11536;50.860;4.286;2023-06-05T04:50:01;14.40;99.50
22738;DHT22;11536;50.860;4.286;2023-06-05T04:52:29;14.40;99.40
22738;DHT22;11536;50.860;4.286;2023-06-05T04:54:55;14.40;99.30
22738;DHT22;11536;50.860;4.286;2023-06-05T04:57:21;14.40;99.40
22738;DHT22;11536;50.860;4.286;2023-06-05T04:59:46;14.40;99.40
22738;DHT22;11536;50.860;4.286;2023-06-05T05:02:12;14.40;99.80
22738;DHT22;11536;50.860;4.286;2023-06-05T05:04:38;14.40;99.50
22738;DHT22;11536;50.860;4.286;2023-06-05T05:07:04;14.40;99.70
22738;DHT22;11536;50.860;4.286;2023-06-05T05:09:30;14.40;99.90
22738;DHT22;11536;50.860;4.286;2023-06-05T05:11:57;14.40;99.90
22738;DHT22;11536;50.860;4.286;2023-06-05T05:14:24;14.40;99.80
22738;DHT22;11536;50.860;4.286;2023-06-05T05:16:51;14.40;99.90
22738;DHT22;11536;50.860;4.286;2023-06-05T05:19:17;14.40;99.90
22738;DHT22;11536;50.860;4.286;2023-06-05T05:21:42;14.40;99.90
22738;DHT22;11536;50.860;4.286;2023-06-05T05:24:08;14.40;99.90
22738;DHT22;11536;50.860;4.286;2023-06-05T05:26:33;14.40;99.90
22738;DHT22;11536;50.860;4.286;2023-06-05T05:28:59;14.50;99.90
22738;DHT22;11536;50.860;4.286;2023-06-05T05:31:25;14.50;99.90
22738;DHT22;11536;50.860;4.286;2023-06-05T05:33:50;14.50;99.90
22738;DHT22;11536;50.860;4.286;2023-06-05T05:36:16;14.60;99.90
22738;DHT22;11536;50.860;4.286;2023-06-05T05:38:41;14.60;99.90
22738;DHT22;11536;50.860;4.286;2023-06-05T05:41:07;14.70;99.90
22738;DHT22;11536;50.860;4.286;2023-06-05T05:43:32;14.70;99.90
22738;DHT22;11536;50.860;4.286;2023-06-05T05:45:58;14.70;99.90
22738;DHT22;11536;50.860;4.286;2023-06-05T05:48:24;14.70;99.90
22738;DHT22;11536;50.860;4.286;2023-06-05T05:50:49;14.70;99.90
22738;DHT22;11536;50.860;4.286;2023-06-05T05:53:15;14.70;99.90
22738;DHT22;11536;50.860;4.286;2023-06-05T05:55:41;14.70;99.90
22738;DHT22;11536;50.860;4.286;2023-06-05T05:58:06;14.80;99.90
22738;DHT22;11536;50.860;4.286;2023-06-05T06:00:32;14.80;99.90
22738;DHT22;11536;50.860;4.286;2023-06-05T06:03:00;14.90;99.90
22738;DHT22;11536;50.860;4.286;2023-06-05T06:05:25;14.90;99.90
22738;DHT22;11536;50.860;4.286;2023-06-05T06:07:51;14.90;99.90
22738;DHT22;11536;50.860;4.286;2023-06-05T06:10:17;15.00;99.90
22738;DHT22;11536;50.860;4.286;2023-06-05T06:12:43;15.10;99.90
22738;DHT22;11536;50.860;4.286;2023-06-05T06:15:10;15.20;99.90
22738;DHT22;11536;50.860;4.286;2023-06-05T06:17:37;15.30;99.90
22738;DHT22;11536;50.860;4.286;2023-06-05T06:20:03;15.40;99.90
22738;DHT22;11536;50.860;4.286;2023-06-05T06:22:29;15.60;99.90
22738;DHT22;11536;50.860;4.286;2023-06-05T06:24:55;15.80;99.90
22738;DHT22;11536;50.860;4.286;2023-06-05T06:27:20;15.80;99.90
22738;DHT22;11536;50.860;4.286;2023-06-05T06:29:48;15.80;99.90
22738;DHT22;11536;50.860;4.286;2023-06-05T06:32:16;15.90;99.90
22738;DHT22;11536;50.860;4.286;2023-06-05T06:34:42;15.90;99.90
22738;DHT22;11536;50.860;4.286;2023-06-05T06:37:18;15.90;99.90
22738;DHT22;11536;50.860;4.286;2023-06-05T06:39:45;16.00;99.90
22738;DHT22;11536;50.860;4.286;2023-06-05T06:42:11;16.00;99.90
22738;DHT22;11536;50.860;4.286;2023-06-05T06:44:39;16.00;99.90
22738;DHT22;11536;50.860;4.286;2023-06-05T06:47:05;16.00;99.90
22738;DHT22;11536;50.860;4.286;2023-06-05T06:49:31;16.00;99.90
22738;DHT22;11536;50.860;4.286;2023-06-05T06:51:57;16.00;99.90
22738;DHT22;11536;50.860;4.286;2023-06-05T06:54:22;16.10;99.90
22738;DHT22;11536;50.860;4.286;2023-06-05T06:56:48;16.10;99.90
22738;DHT22;11536;50.860;4.286;2023-06-05T06:59:17;16.10;99.90
22738;DHT22;11536;50.860;4.286;2023-06-05T07:01:44;16.20;99.90
22738;DHT22;11536;50.860;4.286;2023-06-05T07:04:15;16.20;99.90
22738;DHT22;11536;50.860;4.286;2023-06-05T07:06:46;16.30;99.90
22738;DHT22;11536;50.860;4.286;2023-06-05T07:09:13;16.30;99.90
22738;DHT22;11536;50.860;4.286;2023-06-05T07:11:39;16.30;99.90
22738;DHT22;11536;50.860;4.286;2023-06-05T07:14:06;16.40;99.90
22738;DHT22;11536;50.860;4.286;2023-06-05T07:16:33;16.40;99.90
22738;DHT22;11536;50.860;4.286;2023-06-05T07:18:58;16.40;99.90
22738;DHT22;11536;50.860;4.286;2023-06-05T07:21:24;16.40;99.90
22738;DHT22;11536;50.860;4.286;2023-06-05T07:23:50;16.40;99.90
22738;DHT22;11536;50.860;4.286;2023-06-05T07:26:19;16.50;99.90
22738;DHT22;11536;50.860;4.286;2023-06-05T07:28:45;16.50;99.90
22738;DHT22;11536;50.860;4.286;2023-06-05T07:31:14;16.50;99.90
22738;DHT22;11536;50.860;4.286;2023-06-05T07:33:41;16.50;99.90
22738;DHT22;11536;50.860;4.286;2023-06-05T07:36:07;16.50;99.90
22738;DHT22;11536;50.860;4.286;2023-06-05T07:38:33;16.60;99.90
22738;DHT22;11536;50.860;4.286;2023-06-05T07:40:59;16.60;99.90
22738;DHT22;11536;50.860;4.286;2023-06-05T07:43:27;16.70;99.90
22738;DHT22;11536;50.860;4.286;2023-06-05T07:45:53;16.80;99.90
22738;DHT22;11536;50.860;4.286;2023-06-05T07:48:18;16.80;99.90
22738;DHT22;11536;50.860;4.286;2023-06-05T07:50:44;16.80;99.90
22738;DHT22;11536;50.860;4.286;2023-06-05T07:53:11;16.80;99.90
22738;DHT22;11536;50.860;4.286;2023-06-05T07:55:36;16.90;99.90
22738;DHT22;11536;50.860;4.286;2023-06-05T07:58:02;16.90;99.90
22738;DHT22;11536;50.860;4.286;2023-06-05T08:00:27;16.90;99.90
22738;DHT22;11536;50.860;4.286;2023-06-05T08:02:54;16.90;99.90
22738;DHT22;11536;50.860;4.286;2023-06-05T08:05:19;16.90;99.90
22738;DHT22;11536;50.860;4.286;2023-06-05T08:07:46;17.00;99.90
22738;DHT22;11536;50.860;4.286;2023-06-05T08:10:12;17.00;99.90
22738;DHT22;11536;50.860;4.286;2023-06-05T08:12:39;17.10;99.90
22738;DHT22;11536;50.860;4.286;2023-06-05T08:15:05;17.20;99.90
22738;DHT22;11536;50.860;4.286;2023-06-05T08:17:53;17.20;99.90
22738;DHT22;11536;50.860;4.286;2023-06-05T08:20:18;17.30;99.90
22738;DHT22;11536;50.860;4.286;2023-06-05T08:22:44;17.30;99.90
22738;DHT22;11536;50.860;4.286;2023-06-05T08:25:10;17.40;99.90
22738;DHT22;11536;50.860;4.286;2023-06-05T08:27:35;17.40;99.90
22738;DHT22;11536;50.860;4.286;2023-06-05T08:30:01;17.50;99.90
22738;DHT22;11536;50.860;4.286;2023-06-05T08:32:27;17.50;99.90
22738;DHT22;11536;50.860;4.286;2023-06-05T08:34:52;17.60;99.90
22738;DHT22;11536;50.860;4.286;2023-06-05T08:37:18;17.60;99.90
22738;DHT22;11536;50.860;4.286;2023-06-05T08:39:44;17.60;99.90
22738;DHT22;11536;50.860;4.286;2023-06-05T08:42:10;17.70;99.90
22738;DHT22;11536;50.860;4.286;2023-06-05T08:44:37;17.70;99.90
22738;DHT22;11536;50.860;4.286;2023-06-05T08:47:03;17.80;99.90
22738;DHT22;11536;50.860;4.286;2023-06-05T08:49:29;17.90;99.90
22738;DHT22;11536;50.860;4.286;2023-06-05T08:52:05;17.90;99.90
22738;DHT22;11536;50.860;4.286;2023-06-05T08:54:49;18.00;99.90
22738;DHT22;11536;50.860;4.286;2023-06-05T08:57:15;18.10;99.90
22738;DHT22;11536;50.860;4.286;2023-06-05T08:59:42;18.20;99.90
22738;DHT22;11536;50.860;4.286;2023-06-05T09:02:09;18.20;99.90
22738;DHT22;11536;50.860;4.286;2023-06-05T09:04:35;18.30;99.90
22738;DHT22;11536;50.860;4.286;2023-06-05T09:07:01;18.30;99.90
22738;DHT22;11536;50.860;4.286;2023-06-05T09:09:27;18.40;99.90
22738;DHT22;11536;50.860;4.286;2023-06-05T09:12:06;18.40;99.90
22738;DHT22;11536;50.860;4.286;2023-06-05T09:14:32;18.50;99.90
22738;DHT22;11536;50.860;4.286;2023-06-05T09:17:02;18.50;99.90
22738;DHT22;11536;50.860;4.286;2023-06-05T09:19:39;18.50;99.90
22738;DHT22;11536;50.860;4.286;2023-06-05T09:22:08;18.60;99.90
22738;DHT22;11536;50.860;4.286;2023-06-05T09:24:34;18.60;99.90
22738;DHT22;11536;50.860;4.286;2023-06-05T09:27:02;18.70;99.90
22738;DHT22;11536;50.860;4.286;2023-06-05T09:29:33;18.70;99.90
22738;DHT22;11536;50.860;4.286;2023-06-05T09:32:00;18.80;99.90
22738;DHT22;11536;50.860;4.286;2023-06-05T09:34:29;18.80;99.90
22738;DHT22;11536;50.860;4.286;2023-06-05T09:37:05;18.90;99.90
22738;DHT22;11536;50.860;4.286;2023-06-05T09:39:42;18.90;99.90
22738;DHT22;11536;50.860;4.286;2023-06-05T09:42:11;18.90;99.90
22738;DHT22;11536;50.860;4.286;2023-06-05T09:44:37;19.00;99.90
22738;DHT22;11536;50.860;4.286;2023-06-05T09:47:08;19.10;99.90
22738;DHT22;11536;50.860;4.286;2023-06-05T09:52:07;19.20;99.90
22738;DHT22;11536;50.860;4.286;2023-06-05T09:54:37;19.20;99.90
22738;DHT22;11536;50.860;4.286;2023-06-05T09:57:08;19.30;99.90
22738;DHT22;11536;50.860;4.286;2023-06-05T10:02:12;19.40;99.90
22738;DHT22;11536;50.860;4.286;2023-06-05T10:05:00;19.50;99.90
22738;DHT22;11536;50.860;4.286;2023-06-05T10:07:30;19.50;99.90
22738;DHT22;11536;50.860;4.286;2023-06-05T10:09:57;19.50;99.90
22738;DHT22;11536;50.860;4.286;2023-06-05T10:12:24;19.60;99.90
22738;DHT22;11536;50.860;4.286;2023-06-05T10:14:52;19.60;99.90
22738;DHT22;11536;50.860;4.286;2023-06-05T10:17:21;19.70;99.90
22738;DHT22;11536;50.860;4.286;2023-06-05T10:19:47;19.80;99.90
22738;DHT22;11536;50.860;4.286;2023-06-05T10:22:13;19.80;99.90
22738;DHT22;11536;50.860;4.286;2023-06-05T10:24:44;19.80;99.90
22738;DHT22;11536;50.860;4.286;2023-06-05T10:32:46;20.10;99.90
22738;DHT22;11536;50.860;4.286;2023-06-05T10:41:02;20.30;99.90
22738;DHT22;11536;50.860;4.286;2023-06-05T10:43:35;20.30;99.50
22738;DHT22;11536;50.860;4.286;2023-06-05T10:46:02;20.40;99.80
22738;DHT22;11536;50.860;4.286;2023-06-05T10:49:14;20.40;99.80
22738;DHT22;11536;50.860;4.286;2023-06-05T10:51:45;20.60;99.80
22738;DHT22;11536;50.860;4.286;2023-06-05T10:54:53;20.60;99.70
22738;DHT22;11536;50.860;4.286;2023-06-05T10:57:05;20.60;99.70
22738;DHT22;11536;50.860;4.286;2023-06-05T10:59:34;20.70;99.50
22738;DHT22;11536;50.860;4.286;2023-06-05T11:15:07;21.00;99.30
22738;DHT22;11536;50.860;4.286;2023-06-05T11:17:38;21.00;99.30
22738;DHT22;11536;50.860;4.286;2023-06-05T11:20:06;21.10;98.50
22738;DHT22;11536;50.860;4.286;2023-06-05T11:30:30;21.40;98.60
22738;DHT22;11536;50.860;4.286;2023-06-05T11:33:07;21.40;99.00
22738;DHT22;11536;50.860;4.286;2023-06-05T11:35:34;21.50;98.60
22738;DHT22;11536;50.860;4.286;2023-06-05T11:38:33;21.60;98.30
22738;DHT22;11536;50.860;4.286;2023-06-05T11:40:59;21.70;98.60
22738;DHT22;11536;50.860;4.286;2023-06-05T11:43:25;21.80;98.50
22738;DHT22;11536;50.860;4.286;2023-06-05T11:45:52;21.80;97.90
22738;DHT22;11536;50.860;4.286;2023-06-05T11:48:19;21.90;98.10
22738;DHT22;11536;50.860;4.286;2023-06-05T11:51:01;22.00;98.40
22738;DHT22;11536;50.860;4.286;2023-06-05T11:53:28;22.10;98.20
22738;DHT22;11536;50.860;4.286;2023-06-05T11:55:55;22.10;97.40
22738;DHT22;11536;50.860;4.286;2023-06-05T11:58:38;22.20;97.90
22738;DHT22;11536;50.860;4.286;2023-06-05T12:03:34;22.30;97.60
22738;DHT22;11536;50.860;4.286;2023-06-05T12:06:01;22.40;97.80
22738;DHT22;11536;50.860;4.286;2023-06-05T12:08:32;22.50;97.90
22738;DHT22;11536;50.860;4.286;2023-06-05T12:10:59;22.60;97.90
22738;DHT22;11536;50.860;4.286;2023-06-05T12:13:46;22.70;97.80
22738;DHT22;11536;50.860;4.286;2023-06-05T12:16:12;22.80;97.20
22738;DHT22;11536;50.860;4.286;2023-06-05T12:18:38;22.80;96.60
22738;DHT22;11536;50.860;4.286;2023-06-05T12:21:04;22.80;96.90
22738;DHT22;11536;50.860;4.286;2023-06-05T12:23:32;22.80;96.80
22738;DHT22;11536;50.860;4.286;2023-06-05T12:26:02;22.90;96.50
22738;DHT22;11536;50.860;4.286;2023-06-05T12:28:29;23.00;96.30
22738;DHT22;11536;50.860;4.286;2023-06-05T12:30:55;23.00;96.10
22738;DHT22;11536;50.860;4.286;2023-06-05T12:33:22;23.10;96.20
22738;DHT22;11536;50.860;4.286;2023-06-05T12:36:05;23.20;96.20
22738;DHT22;11536;50.860;4.286;2023-06-05T12:38:37;23.30;96.50
22738;DHT22;11536;50.860;4.286;2023-06-05T12:41:03;23.40;96.70
22738;DHT22;11536;50.860;4.286;2023-06-05T12:43:31;23.50;95.70
22738;DHT22;11536;50.860;4.286;2023-06-05T12:45:57;23.40;95.00
22738;DHT22;11536;50.860;4.286;2023-06-05T12:48:23;23.50;96.10
22738;DHT22;11536;50.860;4.286;2023-06-05T12:50:49;23.60;94.60
22738;DHT22;11536;50.860;4.286;2023-06-05T12:53:15;23.60;95.10
22738;DHT22;11536;50.860;4.286;2023-06-05T12:55:40;23.60;95.10
22738;DHT22;11536;50.860;4.286;2023-06-05T12:58:06;23.70;95.90
22738;DHT22;11536;50.860;4.286;2023-06-05T13:00:32;23.70;95.60
22738;DHT22;11536;50.860;4.286;2023-06-05T13:02:57;23.90;95.70
22738;DHT22;11536;50.860;4.286;2023-06-05T13:05:23;24.00;95.40
22738;DHT22;11536;50.860;4.286;2023-06-05T13:07:49;24.00;95.40
22738;DHT22;11536;50.860;4.286;2023-06-05T13:10:21;24.10;94.60
22738;DHT22;11536;50.860;4.286;2023-06-05T13:12:59;24.00;94.50
22738;DHT22;11536;50.860;4.286;2023-06-05T13:15:24;24.00;94.20
22738;DHT22;11536;50.860;4.286;2023-06-05T13:17:50;24.10;94.30
22738;DHT22;11536;50.860;4.286;2023-06-05T13:20:16;24.00;94.40
22738;DHT22;11536;50.860;4.286;2023-06-05T13:22:42;24.20;95.00
22738;DHT22;11536;50.860;4.286;2023-06-05T13:25:08;24.20;94.40
22738;DHT22;11536;50.860;4.286;2023-06-05T13:27:34;24.20;94.60
22738;DHT22;11536;50.860;4.286;2023-06-05T13:30:00;24.30;94.20
22738;DHT22;11536;50.860;4.286;2023-06-05T13:32:27;24.30;94.10
22738;DHT22;11536;50.860;4.286;2023-06-05T13:34:53;24.20;92.90
22738;DHT22;11536;50.860;4.286;2023-06-05T13:37:20;24.20;93.20
22738;DHT22;11536;50.860;4.286;2023-06-05T13:39:45;24.20;93.70
22738;DHT22;11536;50.860;4.286;2023-06-05T13:42:11;24.20;93.60
22738;DHT22;11536;50.860;4.286;2023-06-05T13:44:37;24.30;93.30
22738;DHT22;11536;50.860;4.286;2023-06-05T13:47:03;24.30;93.70
22738;DHT22;11536;50.860;4.286;2023-06-05T13:49:29;24.40;93.40
22738;DHT22;11536;50.860;4.286;2023-06-05T13:51:57;24.50;94.00
22738;DHT22;11536;50.860;4.286;2023-06-05T13:54:24;24.50;93.00
22738;DHT22;11536;50.860;4.286;2023-06-05T13:56:49;24.40;92.20
22738;DHT22;11536;50.860;4.286;2023-06-05T13:59:18;24.30;92.60
22738;DHT22;11536;50.860;4.286;2023-06-05T14:01:43;24.40;93.90
22738;DHT22;11536;50.860;4.286;2023-06-05T14:04:10;24.50;93.20
22738;DHT22;11536;50.860;4.286;2023-06-05T14:06:35;24.50;92.80
22738;DHT22;11536;50.860;4.286;2023-06-05T14:09:04;24.50;92.70
22738;DHT22;11536;50.860;4.286;2023-06-05T14:11:30;24.40;92.20
22738;DHT22;11536;50.860;4.286;2023-06-05T14:13:56;24.40;92.60
22738;DHT22;11536;50.860;4.286;2023-06-05T14:16:22;24.40;92.30
22738;DHT22;11536;50.860;4.286;2023-06-05T14:18:47;24.40;92.60
22738;DHT22;11536;50.860;4.286;2023-06-05T14:21:13;24.40;92.50
22738;DHT22;11536;50.860;4.286;2023-06-05T14:23:39;24.30;92.20
22738;DHT22;11536;50.860;4.286;2023-06-05T14:26:05;24.30;92.00
22738;DHT22;11536;50.860;4.286;2023-06-05T14:28:31;24.30;92.50
22738;DHT22;11536;50.860;4.286;2023-06-05T14:30:56;24.30;92.30
22738;DHT22;11536;50.860;4.286;2023-06-05T14:33:23;24.30;91.50
22738;DHT22;11536;50.860;4.286;2023-06-05T14:35:49;24.30;91.60
22738;DHT22;11536;50.860;4.286;2023-06-05T14:38:15;24.30;92.10
22738;DHT22;11536;50.860;4.286;2023-06-05T14:40:40;24.30;92.40
22738;DHT22;11536;50.860;4.286;2023-06-05T14:43:07;24.30;92.10
22738;DHT22;11536;50.860;4.286;2023-06-05T14:45:37;24.40;92.10
22738;DHT22;11536;50.860;4.286;2023-06-05T14:48:04;24.40;91.60
22738;DHT22;11536;50.860;4.286;2023-06-05T14:50:30;24.40;92.00
22738;DHT22;11536;50.860;4.286;2023-06-05T14:52:56;24.40;91.60
22738;DHT22;11536;50.860;4.286;2023-06-05T14:55:22;24.40;92.00
22738;DHT22;11536;50.860;4.286;2023-06-05T14:57:48;24.40;92.30
22738;DHT22;11536;50.860;4.286;2023-06-05T15:00:14;24.40;91.50
22738;DHT22;11536;50.860;4.286;2023-06-05T15:02:39;24.40;91.30
22738;DHT22;11536;50.860;4.286;2023-06-05T15:05:05;24.30;92.10
22738;DHT22;11536;50.860;4.286;2023-06-05T15:07:40;24.40;92.00
22738;DHT22;11536;50.860;4.286;2023-06-05T15:10:08;24.30;92.20
22738;DHT22;11536;50.860;4.286;2023-06-05T15:12:35;24.30;92.20
22738;DHT22;11536;50.860;4.286;2023-06-05T15:15:01;24.40;91.90
22738;DHT22;11536;50.860;4.286;2023-06-05T15:17:27;24.30;91.60
22738;DHT22;11536;50.860;4.286;2023-06-05T15:19:52;24.30;91.30
22738;DHT22;11536;50.860;4.286;2023-06-05T15:22:18;24.20;91.60
22738;DHT22;11536;50.860;4.286;2023-06-05T15:24:44;24.20;91.40
22738;DHT22;11536;50.860;4.286;2023-06-05T15:27:12;24.20;91.80
22738;DHT22;11536;50.860;4.286;2023-06-05T15:29:38;24.20;91.80
22738;DHT22;11536;50.860;4.286;2023-06-05T15:32:03;24.20;92.00
22738;DHT22;11536;50.860;4.286;2023-06-05T15:34:29;24.20;92.00
22738;DHT22;11536;50.860;4.286;2023-06-05T15:36:55;24.20;92.00
22738;DHT22;11536;50.860;4.286;2023-06-05T15:39:20;24.20;92.00
22738;DHT22;11536;50.860;4.286;2023-06-05T15:41:46;24.20;92.00
22738;DHT22;11536;50.860;4.286;2023-06-05T15:44:14;24.10;91.60
22738;DHT22;11536;50.860;4.286;2023-06-05T15:46:40;24.10;91.90
22738;DHT22;11536;50.860;4.286;2023-06-05T15:49:06;24.10;91.80
22738;DHT22;11536;50.860;4.286;2023-06-05T15:51:31;24.10;91.40
22738;DHT22;11536;50.860;4.286;2023-06-05T15:53:58;24.10;91.50
22738;DHT22;11536;50.860;4.286;2023-06-05T15:56:27;24.10;91.40
22738;DHT22;11536;50.860;4.286;2023-06-05T15:58:55;24.10;91.50
22738;DHT22;11536;50.860;4.286;2023-06-05T16:01:20;24.10;91.80
22738;DHT22;11536;50.860;4.286;2023-06-05T16:03:46;24.10;91.60
22738;DHT22;11536;50.860;4.286;2023-06-05T16:06:12;24.00;91.90
22738;DHT22;11536;50.860;4.286;2023-06-05T16:08:40;24.00;91.50
22738;DHT22;11536;50.860;4.286;2023-06-05T16:11:06;24.00;91.60
22738;DHT22;11536;50.860;4.286;2023-06-05T16:13:37;24.00;91.80